createdAt,value
2018-12-06T00:00:30.699Z,98.10
2018-12-06T00:04:33.458Z,98.00
2018-12-06T00:08:36.218Z,98.30
2018-12-06T00:12:38.959Z,98.20
2018-12-06T00:16:41.723Z,98.10
2018-12-06T00:20:44.470Z,98.10
2018-12-06T00:24:47.136Z,98.10
2018-12-06T00:28:49.860Z,98.10
2018-12-06T00:32:52.618Z,98.30
2018-12-06T00:36:55.567Z,98.20
2018-12-06T00:40:58.266Z,98.40
2018-12-06T00:45:01.448Z,98.40
2018-12-06T00:49:04.233Z,98.40
2018-12-06T00:53:06.993Z,98.50
2018-12-06T00:57:09.685Z,98.40
2018-12-06T01:01:12.486Z,98.50
2018-12-06T01:05:15.175Z,98.30
2018-12-06T01:09:17.949Z,98.50
2018-12-06T01:13:20.819Z,98.30
2018-12-06T01:17:23.605Z,98.40
2018-12-06T01:21:26.331Z,98.70
2018-12-06T01:25:29.125Z,98.70
2018-12-06T01:29:31.938Z,98.50
2018-12-06T01:33:34.769Z,98.60
2018-12-06T01:37:37.584Z,98.70
2018-12-06T01:41:40.290Z,98.70
2018-12-06T01:45:43.009Z,98.80
2018-12-06T01:49:45.729Z,98.90
2018-12-06T01:53:48.515Z,98.80
2018-12-06T01:57:51.357Z,98.70
2018-12-06T02:01:54.077Z,98.80
2018-12-06T02:05:57.345Z,98.80
2018-12-06T02:10:00.073Z,98.90
2018-12-06T02:14:03.026Z,98.80
2018-12-06T02:18:05.800Z,98.80
2018-12-06T02:22:08.536Z,99.00
2018-12-06T02:26:11.254Z,99.20
2018-12-06T02:30:13.968Z,99.20
2018-12-06T02:34:16.699Z,99.50
2018-12-06T02:38:19.412Z,99.10
2018-12-06T02:42:22.235Z,99.10
2018-12-06T02:46:24.991Z,99.10
2018-12-06T02:50:27.736Z,99.10
2018-12-06T02:54:30.460Z,99.10
2018-12-06T02:58:33.129Z,99.20
2018-12-06T03:02:35.881Z,99.20
2018-12-06T03:06:38.604Z,99.10
2018-12-06T03:10:41.317Z,99.30
2018-12-06T03:14:44.072Z,99.20
2018-12-06T03:18:46.862Z,99.30
2018-12-06T03:22:49.680Z,99.30
2018-12-06T03:26:52.494Z,99.50
2018-12-06T03:30:55.209Z,99.30
2018-12-06T03:34:57.915Z,99.40
2018-12-06T03:39:00.633Z,99.40
2018-12-06T03:43:03.336Z,99.50
2018-12-06T03:47:06.100Z,99.50
2018-12-06T03:51:08.806Z,99.50
2018-12-06T03:55:11.564Z,99.50
2018-12-06T03:59:15.469Z,99.60
2018-12-06T04:03:18.221Z,99.60
2018-12-06T04:07:21.087Z,99.60
2018-12-06T04:11:23.821Z,99.40
2018-12-06T04:15:26.581Z,99.60
2018-12-06T04:19:29.412Z,99.60
2018-12-06T04:23:32.216Z,99.70
2018-12-06T04:27:34.926Z,99.70
2018-12-06T04:31:37.759Z,99.80
2018-12-06T04:35:40.479Z,99.80
2018-12-06T04:39:43.308Z,99.70
2018-12-06T04:43:46.105Z,99.80
2018-12-06T04:47:48.930Z,99.90
2018-12-06T04:51:51.692Z,99.90
2018-12-06T04:55:54.554Z,99.90
2018-12-06T04:59:57.369Z,99.90
2018-12-06T05:04:01.409Z,99.70
2018-12-06T05:08:04.184Z,99.90
2018-12-06T05:12:06.901Z,99.90
2018-12-06T05:16:09.622Z,99.90
2018-12-06T05:20:12.332Z,99.90
2018-12-06T05:24:15.100Z,99.90
2018-12-06T05:28:17.809Z,99.80
2018-12-06T05:32:20.474Z,99.90
2018-12-06T05:36:23.771Z,99.90
2018-12-06T05:40:26.510Z,99.90
2018-12-06T05:44:29.242Z,99.80
2018-12-06T05:48:32.199Z,99.90
2018-12-06T05:52:34.994Z,99.60
2018-12-06T05:56:38.146Z,99.90
2018-12-06T06:00:41.327Z,99.90
2018-12-06T06:04:44.068Z,99.90
2018-12-06T06:08:46.850Z,99.90
2018-12-06T06:12:49.584Z,99.90
2018-12-06T06:16:52.312Z,99.90
2018-12-06T06:20:55.098Z,99.90
2018-12-06T06:24:57.869Z,99.70
2018-12-06T06:29:00.646Z,99.90
2018-12-06T06:33:03.453Z,99.90
2018-12-06T06:37:06.205Z,99.90
2018-12-06T06:41:08.911Z,99.90
2018-12-06T06:45:11.762Z,99.90
2018-12-06T06:49:14.878Z,99.90
2018-12-06T06:53:17.579Z,99.90
2018-12-06T06:57:20.307Z,99.90
2018-12-06T07:01:23.051Z,99.90
2018-12-06T07:05:25.790Z,99.90
2018-12-06T07:09:28.567Z,99.90
2018-12-06T07:13:31.301Z,99.90
2018-12-06T07:17:34.217Z,99.90
2018-12-06T07:21:36.981Z,99.90
2018-12-06T07:25:46.101Z,99.90
2018-12-06T07:29:45.143Z,99.90
2018-12-06T07:33:48.188Z,99.90
2018-12-06T07:37:50.949Z,99.90
2018-12-06T07:41:53.661Z,99.90
2018-12-06T07:46:01.951Z,99.90
2018-12-06T07:50:05.259Z,99.90
2018-12-06T07:54:07.999Z,99.90
2018-12-06T07:58:11.147Z,99.90
2018-12-06T08:02:13.893Z,99.90
2018-12-06T08:06:16.752Z,99.90
2018-12-06T08:10:19.604Z,99.90
2018-12-06T08:14:22.384Z,99.90
2018-12-06T08:18:25.230Z,99.90
2018-12-06T08:22:28.021Z,99.90
2018-12-06T08:26:30.899Z,99.90
2018-12-06T08:30:33.745Z,99.90
2018-12-06T08:34:36.516Z,99.90
2018-12-06T08:38:39.272Z,99.90
2018-12-06T08:42:45.635Z,99.90
2018-12-06T08:46:47.144Z,99.90
2018-12-06T08:50:50.067Z,99.90
2018-12-06T08:54:52.903Z,99.90
2018-12-06T08:58:55.725Z,99.90
2018-12-06T09:02:58.624Z,99.90
2018-12-06T09:07:01.379Z,99.90
2018-12-06T09:11:04.231Z,99.90
2018-12-06T09:15:07.737Z,99.90
2018-12-06T09:19:10.605Z,99.90
2018-12-06T09:23:13.377Z,99.90
2018-12-06T09:27:16.165Z,99.90
2018-12-06T09:31:18.972Z,99.90
2018-12-06T09:35:21.793Z,99.90
2018-12-06T09:39:24.813Z,99.90
2018-12-06T09:43:27.645Z,99.90
2018-12-06T09:47:30.500Z,99.90
2018-12-06T09:51:33.989Z,99.90
2018-12-06T09:55:36.858Z,99.90
2018-12-06T09:59:39.637Z,99.90
2018-12-06T10:03:42.476Z,99.90
2018-12-06T10:07:45.271Z,99.90
2018-12-06T10:11:48.128Z,99.90
2018-12-06T10:15:51.144Z,99.90
2018-12-06T10:19:54.213Z,99.90
2018-12-06T10:23:56.990Z,99.90
2018-12-06T10:28:00.184Z,99.90
2018-12-06T10:32:03.050Z,99.90
2018-12-06T10:36:05.955Z,99.90
2018-12-06T10:40:08.967Z,99.90
2018-12-06T10:44:16.252Z,99.90
2018-12-06T10:48:19.162Z,99.90
2018-12-06T10:52:22.080Z,99.90
2018-12-06T10:56:24.909Z,99.90
2018-12-06T11:00:33.065Z,99.90
2018-12-06T11:04:36.618Z,99.90
2018-12-06T11:08:39.563Z,99.90
2018-12-06T11:12:42.378Z,99.90
2018-12-06T11:16:45.244Z,99.90
2018-12-06T11:20:48.161Z,99.90
2018-12-06T11:24:51.027Z,99.90
2018-12-06T11:28:53.975Z,99.90
2018-12-06T11:32:56.931Z,99.90
2018-12-06T11:36:59.795Z,99.90
2018-12-06T11:41:02.745Z,99.90
2018-12-06T11:45:06.305Z,99.90
2018-12-06T11:49:09.445Z,99.90
2018-12-06T11:53:12.201Z,99.90
2018-12-06T11:57:15.020Z,99.90
2018-12-06T12:01:17.775Z,99.90
2018-12-06T12:05:20.670Z,99.90
2018-12-06T12:09:23.510Z,99.90
2018-12-06T12:13:26.434Z,99.90
2018-12-06T12:17:29.418Z,99.90
2018-12-06T12:21:32.405Z,99.90
2018-12-06T12:25:35.353Z,99.90
2018-12-06T12:29:38.475Z,99.90
2018-12-06T12:33:41.395Z,99.90
2018-12-06T12:37:44.353Z,99.90
2018-12-06T12:41:47.539Z,99.90
2018-12-06T12:45:50.370Z,99.90
2018-12-06T12:49:53.226Z,99.90
2018-12-06T12:53:55.961Z,99.90
2018-12-06T12:57:58.701Z,99.90
2018-12-06T13:02:01.664Z,99.90
2018-12-06T13:06:04.607Z,99.90
2018-12-06T13:10:08.175Z,99.90
2018-12-06T13:14:11.129Z,99.90
2018-12-06T13:18:18.173Z,99.90
2018-12-06T13:22:21.011Z,99.90
2018-12-06T13:26:24.082Z,99.90
2018-12-06T13:30:26.901Z,99.90
2018-12-06T13:34:29.751Z,99.90
2018-12-06T13:38:32.621Z,99.90
2018-12-06T13:42:35.460Z,99.90
2018-12-06T13:46:38.384Z,99.90
2018-12-06T13:50:41.191Z,99.90
2018-12-06T13:54:44.081Z,99.90
2018-12-06T13:58:47.133Z,99.90
2018-12-06T14:02:50.022Z,99.90
2018-12-06T14:06:52.899Z,99.90
2018-12-06T14:10:56.139Z,99.90
2018-12-06T14:14:58.902Z,99.90
2018-12-06T14:19:01.689Z,99.90
2018-12-06T14:23:04.482Z,99.90
2018-12-06T14:27:11.772Z,99.90
2018-12-06T14:31:14.783Z,99.90
2018-12-06T14:35:17.806Z,99.90
2018-12-06T14:39:20.670Z,99.90
2018-12-06T14:43:23.805Z,99.90
2018-12-06T14:47:26.913Z,99.90
2018-12-06T14:51:29.809Z,99.90
2018-12-06T14:55:33.589Z,99.90
2018-12-06T14:59:38.251Z,99.90
2018-12-06T15:03:41.116Z,99.90
2018-12-06T15:07:44.186Z,99.90
2018-12-06T15:11:46.974Z,99.90
2018-12-06T15:15:49.780Z,99.90
2018-12-06T15:19:52.716Z,99.90
2018-12-06T15:23:56.711Z,99.90
2018-12-06T15:27:59.955Z,99.90
2018-12-06T15:32:02.741Z,99.90
2018-12-06T15:36:05.389Z,99.90
2018-12-06T15:40:08.274Z,99.90
2018-12-06T15:44:11.141Z,99.90
2018-12-06T15:48:14.009Z,99.90
2018-12-06T15:52:16.801Z,99.90
2018-12-06T15:56:20.422Z,99.90
2018-12-06T16:00:23.188Z,99.90
2018-12-06T16:04:25.905Z,99.90
2018-12-06T16:08:28.765Z,99.90
2018-12-06T16:12:31.477Z,99.90
2018-12-06T16:16:34.230Z,99.90
2018-12-06T16:20:36.978Z,99.90
2018-12-06T16:24:39.795Z,99.90
2018-12-06T16:28:42.562Z,99.90
2018-12-06T16:32:45.488Z,99.90
2018-12-06T16:36:48.252Z,99.90
2018-12-06T16:40:50.958Z,99.90
2018-12-06T16:44:53.669Z,99.90
2018-12-06T16:48:56.434Z,99.90
2018-12-06T16:52:59.658Z,99.90
2018-12-06T16:57:02.318Z,99.90
2018-12-06T17:01:05.064Z,99.90
2018-12-06T17:05:07.825Z,99.90
2018-12-06T17:09:10.540Z,99.90
2018-12-06T17:13:13.221Z,99.90
2018-12-06T17:17:15.950Z,99.90
2018-12-06T17:21:18.746Z,99.90
2018-12-06T17:26:11.070Z,99.90
2018-12-06T17:30:13.881Z,99.90
2018-12-06T17:34:16.869Z,99.90
2018-12-06T17:38:48.643Z,99.90
2018-12-06T17:42:51.369Z,99.90
2018-12-06T17:46:54.111Z,99.90
2018-12-06T17:50:56.793Z,99.90
2018-12-06T17:54:59.541Z,99.90
2018-12-06T17:59:02.223Z,99.90
2018-12-06T18:03:04.923Z,99.90
2018-12-06T18:07:07.966Z,99.90
2018-12-06T18:11:10.674Z,99.90
2018-12-06T18:15:14.045Z,99.90
2018-12-06T18:19:16.789Z,99.90
2018-12-06T18:23:19.593Z,99.90
2018-12-06T18:27:22.272Z,99.90
2018-12-06T18:31:26.407Z,99.90
2018-12-06T18:35:29.250Z,99.90
2018-12-06T18:39:31.941Z,99.90
2018-12-06T18:43:34.622Z,99.90
2018-12-06T18:47:37.333Z,99.90
2018-12-06T18:51:40.062Z,99.90
2018-12-06T18:55:42.798Z,99.90
2018-12-06T18:59:45.486Z,99.90
2018-12-06T19:03:48.153Z,99.90
2018-12-06T19:07:52.146Z,99.90
2018-12-06T19:11:54.910Z,99.90
2018-12-06T19:15:57.643Z,99.90
2018-12-06T19:20:00.538Z,99.90
2018-12-06T19:24:03.277Z,99.90
2018-12-06T19:28:05.953Z,99.90
2018-12-06T19:32:08.693Z,99.90
2018-12-06T19:36:11.454Z,99.90
2018-12-06T19:40:14.175Z,99.90
2018-12-06T19:44:16.862Z,99.90
2018-12-06T19:48:19.647Z,99.90
2018-12-06T19:52:22.373Z,99.90
2018-12-06T19:56:25.093Z,99.90
2018-12-06T20:00:27.762Z,99.90
2018-12-06T20:04:30.428Z,99.90
2018-12-06T20:08:33.134Z,99.90
2018-12-06T20:12:35.829Z,99.90
2018-12-06T20:16:38.550Z,99.90
2018-12-06T20:20:41.286Z,99.90
2018-12-06T20:24:44.013Z,99.90
2018-12-06T20:28:47.714Z,99.90
2018-12-06T20:32:50.614Z,99.90
2018-12-06T20:36:54.578Z,99.90
2018-12-06T20:40:57.856Z,99.90
2018-12-06T20:45:01.897Z,99.90
2018-12-06T20:49:04.880Z,99.90
2018-12-06T20:53:08.457Z,99.90
2018-12-06T20:57:12.199Z,99.90
2018-12-06T21:05:31.302Z,99.90
2018-12-06T21:09:34.023Z,99.90
2018-12-06T21:13:36.764Z,99.90
2018-12-06T21:17:39.510Z,99.90
2018-12-06T21:21:42.187Z,99.90
2018-12-06T21:25:44.870Z,99.90
2018-12-06T21:29:47.558Z,99.90
2018-12-06T21:33:50.259Z,99.90
2018-12-06T21:37:53.085Z,99.90
2018-12-06T21:41:55.772Z,99.90
2018-12-06T21:45:58.509Z,99.90
2018-12-06T21:50:01.301Z,99.90
2018-12-06T21:54:04.033Z,99.90
2018-12-06T21:58:06.782Z,99.90
2018-12-06T22:02:21.549Z,99.90
2018-12-06T22:06:24.296Z,99.90
2018-12-06T22:10:27.210Z,99.90
2018-12-06T22:14:29.941Z,99.90
2018-12-06T22:18:32.998Z,99.90
2018-12-06T22:22:35.824Z,99.90
2018-12-06T22:26:38.596Z,99.90
2018-12-06T22:30:41.306Z,99.90
2018-12-06T22:34:44.005Z,99.90
2018-12-06T22:38:46.784Z,99.90
2018-12-06T22:42:49.446Z,99.90
2018-12-06T22:46:52.212Z,99.90
2018-12-06T22:50:55.049Z,99.90
2018-12-06T22:54:57.776Z,99.90
2018-12-06T22:59:00.497Z,99.90
2018-12-06T23:03:03.212Z,99.90
2018-12-06T23:07:05.944Z,99.90
2018-12-06T23:11:08.746Z,99.90
2018-12-06T23:15:11.593Z,99.90
2018-12-06T23:19:14.303Z,99.90
2018-12-06T23:23:17.745Z,99.90
2018-12-06T23:27:20.469Z,99.90
2018-12-06T23:31:23.211Z,99.90
2018-12-06T23:35:26.294Z,99.90
2018-12-06T23:39:30.081Z,99.90
2018-12-06T23:43:32.737Z,99.90
2018-12-06T23:47:35.427Z,99.90
2018-12-06T23:51:38.681Z,99.90
2018-12-06T23:55:41.369Z,99.90
2018-12-06T23:59:44.111Z,99.90
